createdAt,value
2019-02-25T00:00:58.439Z,7.80
2019-02-25T00:01:58.425Z,8.00
2019-02-25T00:02:58.418Z,8.20
2019-02-25T00:03:58.438Z,7.90
2019-02-25T00:04:58.395Z,8.00
2019-02-25T00:05:58.392Z,7.70
2019-02-25T00:06:58.403Z,8.00
2019-02-25T00:07:58.364Z,8.10
2019-02-25T00:08:58.395Z,7.90
2019-02-25T00:09:58.341Z,8.20
2019-02-25T00:10:58.335Z,7.90
2019-02-25T00:11:58.334Z,7.40
2019-02-25T00:12:58.309Z,7.70
2019-02-25T00:13:58.302Z,8.20
2019-02-25T00:14:58.344Z,7.50
2019-02-25T00:15:58.298Z,8.10
2019-02-25T00:16:58.264Z,8.30
2019-02-25T00:17:58.268Z,8.40
2019-02-25T00:18:58.275Z,7.80
2019-02-25T00:19:58.237Z,7.60
2019-02-25T00:20:58.293Z,8.40
2019-02-25T00:21:58.220Z,7.80
2019-02-25T00:22:58.219Z,8.20
2019-02-25T00:23:58.193Z,7.90
2019-02-25T00:24:58.235Z,7.90
2019-02-25T00:25:58.180Z,8.10
2019-02-25T00:26:58.161Z,8.10
2019-02-25T00:27:58.160Z,8.30
2019-02-25T00:28:58.141Z,8.10
2019-02-25T00:29:58.140Z,7.50
2019-02-25T00:30:58.148Z,8.30
2019-02-25T00:31:58.104Z,7.40
2019-02-25T00:32:58.108Z,8.00
2019-02-25T00:33:58.128Z,8.00
2019-02-25T00:34:58.105Z,7.80
2019-02-25T00:35:58.086Z,7.60
2019-02-25T00:36:58.063Z,8.00
2019-02-25T00:37:58.079Z,7.70
2019-02-25T00:38:58.034Z,7.90
2019-02-25T00:39:58.034Z,7.80
2019-02-25T00:40:58.013Z,8.00
2019-02-25T00:41:58.012Z,7.90
2019-02-25T00:42:57.987Z,8.00
2019-02-25T00:43:57.978Z,8.20
2019-02-25T00:44:58.023Z,8.90
2019-02-25T00:45:58.002Z,8.10
2019-02-25T00:46:57.957Z,7.70
2019-02-25T00:47:57.985Z,8.40
2019-02-25T00:48:57.924Z,8.10
2019-02-25T00:49:57.954Z,8.10
2019-02-25T00:50:57.946Z,8.50
2019-02-25T00:51:57.908Z,7.80
2019-02-25T00:52:57.893Z,7.70
2019-02-25T00:53:57.865Z,8.30
2019-02-25T00:54:57.859Z,7.70
2019-02-25T00:55:57.865Z,8.50
2019-02-25T00:56:57.833Z,7.50
2019-02-25T00:57:57.826Z,7.60
2019-02-25T00:58:57.817Z,8.50
2019-02-25T00:59:57.812Z,8.30
2019-02-25T01:00:57.840Z,7.90
2019-02-25T01:01:57.783Z,8.10
2019-02-25T01:02:57.784Z,7.50
2019-02-25T01:03:57.784Z,8.00
2019-02-25T01:04:57.745Z,7.60
2019-02-25T01:05:57.769Z,8.20
2019-02-25T01:06:57.742Z,7.60
2019-02-25T01:07:57.728Z,8.00
2019-02-25T01:08:57.717Z,7.40
2019-02-25T01:09:57.723Z,7.40
2019-02-25T01:10:57.715Z,8.00
2019-02-25T01:11:57.688Z,7.80
2019-02-25T01:12:57.659Z,7.70
2019-02-25T01:13:57.649Z,9.00
2019-02-25T01:14:57.651Z,7.90
2019-02-25T01:15:57.643Z,8.10
2019-02-25T01:16:57.632Z,8.00
2019-02-25T01:17:57.615Z,7.90
2019-02-25T01:18:57.614Z,7.90
2019-02-25T01:19:57.592Z,7.70
2019-02-25T01:20:57.606Z,8.50
2019-02-25T01:21:57.573Z,8.10
2019-02-25T01:22:57.573Z,7.70
2019-02-25T01:23:57.576Z,8.20
2019-02-25T01:24:57.531Z,7.70
2019-02-25T01:25:57.556Z,7.80
2019-02-25T01:26:57.541Z,8.40
2019-02-25T01:27:57.496Z,8.20
2019-02-25T01:28:57.489Z,8.80
2019-02-25T01:29:57.491Z,8.30
2019-02-25T01:30:57.488Z,8.20
2019-02-25T01:31:57.478Z,7.80
2019-02-25T01:32:57.448Z,8.40
2019-02-25T01:33:57.481Z,8.00
2019-02-25T01:34:57.419Z,8.20
2019-02-25T01:35:57.429Z,8.30
2019-02-25T01:36:57.446Z,8.40
2019-02-25T01:37:57.386Z,8.30
2019-02-25T01:38:57.381Z,8.90
2019-02-25T01:39:57.368Z,8.70
2019-02-25T01:40:57.364Z,8.50
2019-02-25T01:41:57.365Z,8.90
2019-02-25T01:42:57.333Z,8.80
2019-02-25T01:43:57.341Z,8.90
2019-02-25T01:44:57.325Z,9.40
2019-02-25T01:45:57.322Z,9.40
2019-02-25T01:46:57.337Z,9.60
2019-02-25T01:47:57.303Z,8.80
2019-02-25T01:48:57.268Z,9.50
2019-02-25T01:49:57.258Z,9.20
2019-02-25T01:50:57.250Z,9.60
2019-02-25T01:51:57.234Z,9.00
2019-02-25T01:52:57.238Z,8.60
2019-02-25T01:53:57.224Z,10.00
2019-02-25T01:54:57.212Z,9.00
2019-02-25T01:55:57.195Z,8.40
2019-02-25T01:56:57.218Z,9.60
2019-02-25T01:57:57.216Z,9.10
2019-02-25T01:58:57.163Z,9.00
2019-02-25T01:59:57.170Z,9.40
2019-02-25T02:00:57.179Z,8.80
2019-02-25T02:01:57.139Z,8.70
2019-02-25T02:02:57.148Z,8.70
2019-02-25T02:03:57.110Z,8.80
2019-02-25T02:04:57.097Z,8.10
2019-02-25T02:05:57.086Z,8.70
2019-02-25T02:06:57.091Z,10.10
2019-02-25T02:07:57.083Z,9.10
2019-02-25T02:08:57.058Z,9.40
2019-02-25T02:09:57.058Z,9.30
2019-02-25T02:10:57.029Z,8.90
2019-02-25T02:11:57.021Z,8.80
2019-02-25T02:12:57.016Z,9.40
2019-02-25T02:13:57.040Z,8.80
2019-02-25T02:14:56.997Z,8.50
2019-02-25T02:15:56.975Z,8.60
2019-02-25T02:16:56.993Z,8.90
2019-02-25T02:17:56.971Z,8.40
2019-02-25T02:18:56.990Z,8.10
2019-02-25T02:19:56.935Z,8.20
2019-02-25T02:20:56.933Z,8.50
2019-02-25T02:21:56.925Z,8.60
2019-02-25T02:22:56.922Z,8.80
2019-02-25T02:23:56.909Z,8.10
2019-02-25T02:24:56.892Z,8.60
2019-02-25T02:25:56.868Z,9.00
2019-02-25T02:26:56.859Z,8.80
2019-02-25T02:27:56.874Z,8.90
2019-02-25T02:28:56.857Z,8.80
2019-02-25T02:29:56.842Z,8.90
2019-02-25T02:30:56.834Z,8.80
2019-02-25T02:31:56.807Z,8.20
2019-02-25T02:32:56.857Z,8.60
2019-02-25T02:33:56.801Z,8.80
2019-02-25T02:34:56.780Z,9.20
2019-02-25T02:35:56.763Z,8.50
2019-02-25T02:36:56.754Z,8.60
2019-02-25T02:37:56.752Z,8.60
2019-02-25T02:38:56.747Z,8.80
2019-02-25T02:39:56.750Z,8.40
2019-02-25T02:40:56.717Z,8.50
2019-02-25T02:41:56.696Z,8.30
2019-02-25T02:42:56.694Z,9.10
2019-02-25T02:43:56.688Z,9.10
2019-02-25T02:44:56.696Z,8.50
2019-02-25T02:45:56.692Z,9.40
2019-02-25T02:46:56.654Z,8.90
2019-02-25T02:47:56.635Z,8.90
2019-02-25T02:48:56.620Z,9.10
2019-02-25T02:49:56.623Z,9.30
2019-02-25T02:50:56.619Z,8.80
2019-02-25T02:51:56.590Z,9.10
2019-02-25T02:52:56.580Z,8.80
2019-02-25T02:53:56.578Z,8.80
2019-02-25T02:54:56.578Z,8.10
2019-02-25T02:55:56.552Z,8.30
2019-02-25T02:56:56.540Z,8.40
2019-02-25T02:57:56.520Z,8.70
2019-02-25T02:58:56.526Z,8.80
2019-02-25T02:59:56.522Z,8.70
2019-02-25T03:00:56.515Z,8.60
2019-02-25T03:01:56.509Z,8.20
2019-02-25T03:02:56.472Z,8.30
2019-02-25T03:03:56.460Z,8.60
2019-02-25T03:04:56.473Z,8.20
2019-02-25T03:05:56.453Z,8.70
2019-02-25T03:06:56.422Z,8.70
2019-02-25T03:07:56.413Z,8.70
2019-02-25T03:08:56.421Z,7.70
2019-02-25T03:09:58.681Z,8.30
2019-02-25T03:10:56.399Z,8.40
2019-02-25T03:11:56.374Z,8.40
2019-02-25T03:12:56.366Z,8.40
2019-02-25T03:13:56.360Z,8.50
2019-02-25T03:14:56.360Z,8.70
2019-02-25T03:15:56.340Z,8.10
2019-02-25T03:16:56.314Z,8.10
2019-02-25T03:17:56.321Z,8.40
2019-02-25T03:18:56.293Z,7.90
2019-02-25T03:19:56.290Z,8.50
2019-02-25T03:20:56.915Z,7.90
2019-02-25T03:21:56.268Z,8.90
2019-02-25T03:22:56.275Z,8.50
2019-02-25T03:23:56.240Z,7.70
2019-02-25T03:24:56.244Z,8.50
2019-02-25T03:25:56.263Z,8.90
2019-02-25T03:26:56.221Z,8.50
2019-02-25T03:27:56.203Z,8.00
2019-02-25T03:28:56.184Z,9.30
2019-02-25T03:29:56.173Z,7.80
2019-02-25T03:30:56.193Z,8.70
2019-02-25T03:31:56.185Z,8.70
2019-02-25T03:32:56.167Z,9.30
2019-02-25T03:33:56.142Z,8.70
2019-02-25T03:34:56.118Z,8.70
2019-02-25T03:35:56.130Z,8.10
2019-02-25T03:36:56.128Z,9.00
2019-02-25T03:37:56.089Z,8.50
2019-02-25T03:38:56.077Z,8.50
2019-02-25T03:39:56.077Z,8.30
2019-02-25T03:40:56.081Z,8.30
2019-02-25T03:41:56.074Z,8.70
2019-02-25T03:42:56.064Z,8.50
2019-02-25T03:43:56.032Z,8.50
2019-02-25T03:44:56.018Z,8.50
2019-02-25T03:45:56.005Z,8.50
2019-02-25T03:46:56.003Z,8.40
2019-02-25T03:47:56.034Z,8.60
2019-02-25T03:48:55.981Z,8.30
2019-02-25T03:49:55.981Z,8.80
2019-02-25T03:50:55.954Z,8.90
2019-02-25T03:51:55.962Z,8.10
2019-02-25T03:52:55.955Z,9.00
2019-02-25T03:53:55.914Z,9.20
2019-02-25T03:54:55.927Z,9.20
2019-02-25T03:55:55.892Z,8.80
2019-02-25T03:56:55.885Z,8.70
2019-02-25T03:57:55.899Z,8.50
2019-02-25T03:58:55.857Z,8.80
2019-02-25T03:59:55.862Z,8.60
2019-02-25T04:00:55.865Z,8.70
2019-02-25T04:01:55.826Z,8.10
2019-02-25T04:02:55.836Z,7.90
2019-02-25T04:03:55.818Z,8.50
2019-02-25T04:04:55.800Z,8.70
2019-02-25T04:05:55.785Z,9.00
2019-02-25T04:06:55.774Z,8.40
2019-02-25T04:07:55.802Z,8.90
2019-02-25T04:08:55.778Z,9.20
2019-02-25T04:09:55.742Z,9.20
2019-02-25T04:10:55.729Z,9.70
2019-02-25T04:11:55.735Z,9.30
2019-02-25T04:12:55.739Z,8.90
2019-02-25T04:13:55.695Z,9.70
2019-02-25T04:14:55.701Z,9.30
2019-02-25T04:15:55.684Z,9.00
2019-02-25T04:16:55.667Z,9.10
2019-02-25T04:17:55.698Z,9.00
2019-02-25T04:18:55.643Z,9.00
2019-02-25T04:19:55.659Z,9.20
2019-02-25T04:20:55.628Z,8.80
2019-02-25T04:21:55.647Z,9.00
2019-02-25T04:22:55.626Z,9.00
2019-02-25T04:23:55.622Z,9.40
2019-02-25T04:24:55.594Z,9.40
2019-02-25T04:25:55.575Z,9.30
2019-02-25T04:26:55.833Z,9.00
2019-02-25T04:27:55.584Z,9.00
2019-02-25T04:28:55.542Z,9.00
2019-02-25T04:29:55.529Z,9.40
2019-02-25T04:30:55.512Z,8.90
2019-02-25T04:31:55.507Z,8.90
2019-02-25T04:32:55.503Z,8.80
2019-02-25T04:33:55.512Z,8.90
2019-02-25T04:34:55.467Z,9.00
2019-02-25T04:35:55.457Z,8.90
2019-02-25T04:36:55.448Z,8.50
2019-02-25T04:37:55.436Z,9.10
2019-02-25T04:38:55.452Z,8.70
2019-02-25T04:39:55.421Z,8.80
2019-02-25T04:40:55.406Z,8.70
2019-02-25T04:41:55.396Z,9.10
2019-02-25T04:42:55.403Z,8.70
2019-02-25T04:43:55.390Z,9.00
2019-02-25T04:44:55.359Z,8.60
2019-02-25T04:45:55.358Z,8.90
2019-02-25T04:46:55.336Z,8.40
2019-02-25T04:47:55.326Z,9.60
2019-02-25T04:48:55.343Z,9.10
2019-02-25T04:49:55.323Z,9.10
2019-02-25T04:50:55.302Z,8.50
2019-02-25T04:51:55.291Z,9.10
2019-02-25T04:52:55.286Z,9.10
2019-02-25T04:53:55.291Z,8.80
2019-02-25T04:54:55.283Z,8.60
2019-02-25T04:55:55.247Z,9.30
2019-02-25T04:56:55.236Z,8.40
2019-02-25T04:57:55.223Z,9.10
2019-02-25T04:58:55.230Z,9.10
2019-02-25T04:59:55.243Z,8.70
2019-02-25T05:00:55.205Z,8.60
2019-02-25T05:01:55.175Z,8.90
2019-02-25T05:02:55.194Z,9.00
2019-02-25T05:03:55.157Z,8.80
2019-02-25T05:04:55.168Z,8.60
2019-02-25T05:05:55.162Z,9.00
2019-02-25T05:06:55.166Z,8.90
2019-02-25T05:07:55.111Z,8.70
2019-02-25T05:08:55.122Z,9.00
2019-02-25T05:09:55.111Z,9.30
2019-02-25T05:10:55.080Z,9.00
2019-02-25T05:11:55.068Z,8.60
2019-02-25T05:12:55.093Z,8.60
2019-02-25T05:13:55.050Z,8.70
2019-02-25T05:14:55.035Z,8.90
2019-02-25T05:15:55.050Z,8.80
2019-02-25T05:16:55.041Z,8.90
2019-02-25T05:17:55.035Z,8.80
2019-02-25T05:18:54.991Z,8.70
2019-02-25T05:19:54.978Z,8.70
2019-02-25T05:20:55.005Z,8.70
2019-02-25T05:21:54.985Z,8.50
2019-02-25T05:22:54.972Z,9.10
2019-02-25T05:23:54.936Z,8.60
2019-02-25T05:24:54.939Z,9.00
2019-02-25T05:25:54.956Z,8.70
2019-02-25T05:26:54.946Z,8.90
2019-02-25T05:27:54.890Z,8.80
2019-02-25T05:28:54.896Z,8.80
2019-02-25T05:29:54.875Z,9.20
2019-02-25T05:30:54.890Z,8.90
2019-02-25T05:31:54.856Z,8.80
2019-02-25T05:32:54.871Z,8.70
2019-02-25T05:33:54.847Z,8.80
2019-02-25T05:34:54.823Z,9.30
2019-02-25T05:35:54.838Z,9.10
2019-02-25T05:36:54.826Z,9.00
2019-02-25T05:37:54.832Z,8.30
2019-02-25T05:38:54.777Z,8.30
2019-02-25T05:39:54.779Z,9.00
2019-02-25T05:40:54.769Z,8.70
2019-02-25T05:41:54.752Z,8.60
2019-02-25T05:42:54.732Z,8.60
2019-02-25T05:43:54.777Z,8.70
2019-02-25T05:44:54.713Z,8.30
2019-02-25T05:45:54.716Z,8.70
2019-02-25T05:46:54.690Z,8.50
2019-02-25T05:47:54.697Z,9.40
2019-02-25T05:48:54.718Z,9.00
2019-02-25T05:49:54.668Z,9.30
2019-02-25T05:50:54.670Z,8.70
2019-02-25T05:51:54.666Z,8.80
2019-02-25T05:52:54.638Z,8.90
2019-02-25T05:53:54.627Z,8.60
2019-02-25T05:54:54.641Z,9.60
2019-02-25T05:55:54.617Z,8.80
2019-02-25T05:56:54.624Z,8.80
2019-02-25T05:57:54.569Z,8.80
2019-02-25T05:58:54.558Z,8.70
2019-02-25T05:59:54.551Z,9.10
2019-02-25T06:00:54.543Z,8.50
2019-02-25T06:01:54.563Z,8.90
2019-02-25T06:02:54.529Z,8.50
2019-02-25T06:03:54.557Z,8.80
2019-02-25T06:04:54.509Z,8.30
2019-02-25T06:05:54.492Z,9.00
2019-02-25T06:06:54.508Z,9.30
2019-02-25T06:07:54.480Z,8.50
2019-02-25T06:08:54.479Z,9.30
2019-02-25T06:09:54.457Z,8.50
2019-02-25T06:10:54.454Z,9.90
2019-02-25T06:11:54.440Z,9.30
2019-02-25T06:12:54.417Z,9.40
2019-02-25T06:13:54.407Z,9.70
2019-02-25T06:14:54.395Z,9.40
2019-02-25T06:15:54.386Z,9.20
2019-02-25T06:16:54.423Z,8.80
2019-02-25T06:17:54.366Z,9.60
2019-02-25T06:18:54.345Z,9.50
2019-02-25T06:19:54.344Z,9.30
2019-02-25T06:20:54.339Z,8.80
2019-02-25T06:21:54.332Z,9.30
2019-02-25T06:22:54.346Z,9.50
2019-02-25T06:23:54.311Z,9.80
2019-02-25T06:24:54.276Z,9.90
2019-02-25T06:25:54.292Z,9.10
2019-02-25T06:26:54.260Z,10.00
2019-02-25T06:27:54.264Z,9.70
2019-02-25T06:28:54.250Z,10.30
2019-02-25T06:29:54.232Z,10.10
2019-02-25T06:30:54.209Z,9.70
2019-02-25T06:31:54.200Z,9.90
2019-02-25T06:32:54.206Z,9.50
2019-02-25T06:33:54.198Z,9.60
2019-02-25T06:34:54.197Z,9.40
2019-02-25T06:35:54.159Z,9.80
2019-02-25T06:36:54.143Z,9.50
2019-02-25T06:37:54.160Z,9.00
2019-02-25T06:38:54.129Z,9.80
2019-02-25T06:39:54.121Z,9.50
2019-02-25T06:40:54.103Z,10.10
2019-02-25T06:41:54.101Z,9.20
2019-02-25T06:42:54.109Z,10.30
2019-02-25T06:43:54.108Z,9.60
2019-02-25T06:44:54.062Z,9.10
2019-02-25T06:45:54.050Z,9.60
2019-02-25T06:46:54.063Z,10.40
2019-02-25T06:47:54.049Z,9.90
2019-02-25T06:48:54.018Z,9.60
2019-02-25T06:49:54.004Z,9.30
2019-02-25T06:50:54.000Z,9.60
2019-02-25T06:51:54.018Z,9.70
2019-02-25T06:52:54.031Z,10.00
2019-02-25T06:53:53.967Z,9.80
2019-02-25T06:54:53.962Z,9.80
2019-02-25T06:55:53.944Z,9.60
2019-02-25T06:56:53.934Z,9.50
2019-02-25T06:57:53.915Z,9.50
2019-02-25T06:58:53.969Z,9.90
2019-02-25T06:59:53.900Z,10.00
2019-02-25T07:00:53.885Z,9.70
2019-02-25T07:01:53.879Z,9.50
2019-02-25T07:02:53.873Z,10.00
2019-02-25T07:03:53.890Z,9.10
2019-02-25T07:04:53.850Z,10.00
2019-02-25T07:05:53.836Z,10.10
2019-02-25T07:06:53.845Z,9.30
2019-02-25T07:07:53.809Z,9.80
2019-02-25T07:08:53.843Z,9.30
2019-02-25T07:09:53.831Z,9.70
2019-02-25T07:10:53.776Z,9.80
2019-02-25T07:11:53.774Z,9.30
2019-02-25T07:12:53.757Z,8.90
2019-02-25T07:13:53.784Z,10.10
2019-02-25T07:14:53.747Z,9.00
2019-02-25T07:15:53.724Z,9.20
2019-02-25T07:16:53.722Z,9.10
2019-02-25T07:17:53.717Z,9.10
2019-02-25T07:18:53.741Z,9.40
2019-02-25T07:19:53.677Z,9.50
2019-02-25T07:20:53.668Z,9.90
2019-02-25T07:21:53.660Z,9.50
2019-02-25T07:22:53.651Z,10.00
2019-02-25T07:23:53.656Z,10.10
2019-02-25T07:24:53.665Z,9.70
2019-02-25T07:25:53.690Z,9.70
2019-02-25T07:26:53.611Z,9.30
2019-02-25T07:27:53.591Z,10.30
2019-02-25T07:28:53.618Z,9.80
2019-02-25T07:29:53.591Z,9.70
2019-02-25T07:30:53.635Z,9.60
2019-02-25T07:31:53.558Z,9.40
2019-02-25T07:32:53.535Z,9.90
2019-02-25T07:33:53.560Z,9.30
2019-02-25T07:34:53.520Z,9.30
2019-02-25T07:35:53.534Z,9.80
2019-02-25T07:36:53.492Z,9.30
2019-02-25T07:37:53.499Z,10.00
2019-02-25T07:38:53.467Z,9.80
2019-02-25T07:39:53.470Z,9.70
2019-02-25T07:40:53.473Z,9.90
2019-02-25T07:41:53.467Z,11.10
2019-02-25T07:42:53.440Z,10.30
2019-02-25T07:43:53.441Z,10.00
2019-02-25T07:44:53.411Z,9.60
2019-02-25T07:45:53.428Z,10.40
2019-02-25T07:46:53.419Z,10.10
2019-02-25T07:47:53.443Z,10.50
2019-02-25T07:48:53.380Z,10.30
2019-02-25T07:49:53.378Z,10.90
2019-02-25T07:50:53.336Z,11.00
2019-02-25T07:51:53.357Z,11.10
2019-02-25T07:52:53.323Z,10.20
2019-02-25T07:53:53.351Z,10.50
2019-02-25T07:54:53.393Z,11.50
2019-02-25T07:56:01.909Z,11.80
2019-02-25T07:56:54.274Z,10.90
2019-02-25T07:57:53.299Z,10.30
2019-02-25T07:58:53.266Z,10.60
2019-02-25T07:59:53.243Z,10.30
2019-02-25T08:00:53.249Z,9.90
2019-02-25T08:01:53.244Z,9.90
2019-02-25T08:02:53.221Z,9.80
2019-02-25T08:03:53.201Z,9.60
2019-02-25T08:04:53.202Z,9.40
2019-02-25T08:05:53.194Z,9.60
2019-02-25T08:06:53.165Z,9.10
2019-02-25T08:07:53.156Z,9.50
2019-02-25T08:08:53.140Z,9.20
2019-02-25T08:09:53.150Z,9.20
2019-02-25T08:10:53.136Z,9.60
2019-02-25T08:11:53.114Z,9.00
2019-02-25T08:12:53.139Z,8.90
2019-02-25T08:13:53.090Z,8.70
2019-02-25T08:14:53.076Z,8.40
2019-02-25T08:15:53.100Z,8.00
2019-02-25T08:16:53.082Z,7.90
2019-02-25T08:17:53.046Z,7.50
2019-02-25T08:18:53.030Z,7.70
2019-02-25T08:19:53.024Z,7.50
2019-02-25T08:20:53.008Z,7.60
2019-02-25T08:21:53.028Z,7.80
2019-02-25T08:22:53.039Z,7.70
2019-02-25T08:23:52.982Z,7.60
2019-02-25T08:24:52.963Z,7.60
2019-02-25T08:25:52.966Z,8.10
2019-02-25T08:26:52.957Z,7.10
2019-02-25T08:27:52.952Z,8.60
2019-02-25T08:28:52.993Z,8.00
2019-02-25T08:29:52.909Z,8.00
2019-02-25T08:30:52.898Z,8.10
2019-02-25T08:31:52.884Z,8.70
2019-02-25T08:32:52.876Z,9.20
2019-02-25T08:33:52.906Z,8.70
2019-02-25T08:34:52.852Z,8.70
2019-02-25T08:35:52.860Z,9.00
2019-02-25T08:37:01.969Z,9.00
2019-02-25T08:37:53.823Z,9.30
2019-02-25T08:38:52.863Z,8.10
2019-02-25T08:39:52.813Z,8.80
2019-02-25T08:40:52.792Z,9.00
2019-02-25T08:41:52.787Z,8.50
2019-02-25T08:42:52.806Z,8.80
2019-02-25T08:43:52.761Z,8.70
2019-02-25T08:44:52.749Z,8.80
2019-02-25T08:45:52.736Z,7.80
2019-02-25T08:46:52.719Z,9.00
2019-02-25T08:47:52.736Z,8.60
2019-02-25T08:48:52.711Z,8.80
2019-02-25T08:49:52.710Z,7.90
2019-02-25T08:50:52.740Z,7.90
2019-02-25T08:51:52.675Z,8.70
2019-02-25T08:52:52.683Z,8.50
2019-02-25T08:53:52.646Z,8.30
2019-02-25T08:54:52.663Z,8.60
2019-02-25T08:55:52.622Z,8.20
2019-02-25T08:56:52.616Z,8.20
2019-02-25T08:57:52.601Z,8.40
2019-02-25T08:58:52.612Z,8.40
2019-02-25T08:59:52.595Z,8.20
2019-02-25T09:00:52.584Z,8.00
2019-02-25T09:01:52.566Z,8.70
2019-02-25T09:02:52.547Z,8.80
2019-02-25T09:03:52.538Z,8.60
2019-02-25T09:04:52.546Z,9.10
2019-02-25T09:05:52.555Z,8.90
2019-02-25T09:06:52.508Z,9.10
2019-02-25T09:07:52.504Z,9.40
2019-02-25T09:08:52.488Z,8.80
2019-02-25T09:09:52.484Z,9.30
2019-02-25T09:10:52.472Z,9.10
2019-02-25T09:11:52.470Z,9.40
2019-02-25T09:12:52.446Z,9.50
2019-02-25T09:13:52.434Z,9.70
2019-02-25T09:14:52.435Z,9.90
2019-02-25T09:15:52.420Z,9.60
2019-02-25T09:16:52.427Z,9.60
2019-02-25T09:17:52.383Z,9.90
2019-02-25T09:18:52.398Z,10.10
2019-02-25T09:19:52.382Z,9.70
2019-02-25T09:20:52.347Z,9.20
2019-02-25T09:21:52.342Z,10.00
2019-02-25T09:22:52.347Z,10.10
2019-02-25T09:23:52.318Z,10.20
2019-02-25T09:24:52.301Z,10.00
2019-02-25T09:25:52.311Z,9.60
2019-02-25T09:26:52.290Z,10.10
2019-02-25T09:27:52.403Z,10.30
2019-02-25T09:28:52.290Z,9.90
2019-02-25T09:29:52.266Z,9.60
2019-02-25T09:30:52.251Z,10.50
2019-02-25T09:31:52.222Z,9.50
2019-02-25T09:32:52.238Z,9.60
2019-02-25T09:33:52.201Z,10.90
2019-02-25T09:34:52.259Z,10.50
2019-02-25T09:35:52.223Z,10.30
2019-02-25T09:36:52.169Z,10.80
2019-02-25T09:37:52.180Z,11.00
2019-02-25T09:38:52.148Z,10.80
2019-02-25T09:39:52.148Z,10.90
2019-02-25T09:40:52.143Z,10.00
2019-02-25T09:41:52.287Z,10.10
2019-02-25T09:42:52.108Z,10.30
2019-02-25T09:43:52.095Z,11.20
2019-02-25T09:44:52.102Z,10.90
2019-02-25T09:45:52.067Z,10.80
2019-02-25T09:46:52.096Z,10.80
2019-02-25T09:47:52.084Z,10.70
2019-02-25T09:48:52.041Z,11.00
2019-02-25T09:49:52.036Z,10.40
2019-02-25T09:50:52.065Z,11.10
2019-02-25T09:51:52.026Z,9.80
2019-02-25T09:52:52.009Z,11.00
2019-02-25T09:53:51.987Z,9.80
2019-02-25T09:54:51.975Z,9.90
2019-02-25T09:55:52.016Z,9.70
2019-02-25T09:56:51.969Z,9.80
2019-02-25T09:57:51.961Z,10.00
2019-02-25T09:58:52.078Z,9.00
2019-02-25T09:59:51.925Z,9.00
2019-02-25T10:00:51.926Z,9.50
2019-02-25T10:01:51.918Z,9.80
2019-02-25T10:02:51.885Z,9.80
2019-02-25T10:03:51.888Z,9.40
2019-02-25T10:04:51.889Z,9.30
2019-02-25T10:05:51.869Z,9.40
2019-02-25T10:06:51.864Z,10.00
2019-02-25T10:07:51.825Z,9.50
2019-02-25T10:08:51.844Z,9.90
2019-02-25T10:09:51.814Z,10.20
2019-02-25T10:10:51.792Z,9.70
2019-02-25T10:11:51.806Z,8.40
2019-02-25T10:12:51.771Z,8.90
2019-02-25T10:13:51.977Z,9.10
2019-02-25T10:14:51.754Z,9.30
2019-02-25T10:15:51.746Z,9.10
2019-02-25T10:16:53.807Z,8.70
2019-02-25T10:17:51.713Z,9.50
2019-02-25T10:18:51.719Z,9.90
2019-02-25T10:19:51.692Z,9.40
2019-02-25T10:20:51.712Z,10.40
2019-02-25T10:21:51.726Z,8.70
2019-02-25T10:22:51.674Z,8.40
2019-02-25T10:23:51.673Z,8.90
2019-02-25T10:24:51.672Z,8.00
2019-02-25T10:25:51.627Z,7.70
2019-02-25T10:26:51.657Z,8.20
2019-02-25T10:27:51.613Z,8.30
2019-02-25T10:28:51.604Z,8.90
2019-02-25T10:29:51.589Z,9.30
2019-02-25T10:30:53.153Z,8.80
2019-02-25T10:31:51.588Z,8.80
2019-02-25T10:32:51.571Z,9.90
2019-02-25T10:33:51.539Z,10.20
2019-02-25T10:34:51.539Z,10.00
2019-02-25T10:35:51.522Z,9.90
2019-02-25T10:36:52.366Z,9.50
2019-02-25T10:37:51.531Z,9.90
2019-02-25T10:38:51.504Z,9.80
2019-02-25T10:39:51.597Z,8.60
2019-02-25T10:40:52.214Z,8.90
2019-02-25T10:41:53.381Z,8.40
2019-02-25T10:42:51.481Z,8.50
2019-02-25T10:43:51.460Z,7.80
2019-02-25T10:44:51.417Z,8.10
2019-02-25T10:45:51.415Z,8.80
2019-02-25T10:46:51.412Z,8.50
2019-02-25T10:47:54.387Z,9.10
2019-02-25T10:48:54.405Z,7.80
2019-02-25T10:49:51.366Z,8.20
2019-02-25T10:50:56.071Z,7.60
2019-02-25T10:51:52.335Z,8.10
2019-02-25T10:52:51.334Z,8.00
2019-02-25T10:53:52.024Z,7.80
2019-02-25T10:54:52.429Z,7.90
2019-02-25T10:55:52.953Z,8.20
2019-02-25T10:56:51.988Z,8.10
2019-02-25T10:57:52.853Z,7.80
2019-02-25T10:58:51.336Z,8.00
2019-02-25T10:59:51.269Z,8.10
2019-02-25T11:00:51.259Z,7.50
2019-02-25T11:01:51.234Z,6.70
2019-02-25T11:02:53.389Z,6.70
2019-02-25T11:03:52.596Z,6.60
2019-02-25T11:04:51.909Z,5.90
2019-02-25T11:05:51.703Z,6.80
2019-02-25T11:06:51.178Z,6.10
2019-02-25T11:07:51.165Z,6.30
2019-02-25T11:08:51.188Z,6.60
2019-02-25T11:09:51.170Z,5.50
2019-02-25T11:10:52.870Z,5.30
2019-02-25T11:11:52.657Z,5.80
2019-02-25T11:12:51.115Z,6.10
2019-02-25T11:13:51.137Z,6.20
2019-02-25T11:14:51.090Z,6.20
2019-02-25T11:15:51.082Z,6.00
2019-02-25T11:16:52.211Z,6.30
2019-02-25T11:17:51.819Z,6.00
2019-02-25T11:18:54.027Z,5.70
2019-02-25T11:19:51.053Z,5.20
2019-02-25T11:20:51.025Z,5.60
2019-02-25T11:21:51.017Z,5.90
2019-02-25T11:22:51.009Z,6.10
2019-02-25T11:23:52.886Z,6.10
2019-02-25T11:24:51.830Z,6.20
2019-02-25T11:25:51.486Z,5.80
2019-02-25T11:26:50.961Z,5.70
2019-02-25T11:27:50.947Z,5.20
2019-02-25T11:28:50.954Z,5.40
2019-02-25T11:29:50.947Z,5.60
2019-02-25T11:30:51.949Z,5.90
2019-02-25T11:31:51.578Z,5.70
2019-02-25T11:32:53.189Z,5.40
2019-02-25T11:33:50.885Z,6.00
2019-02-25T11:34:50.899Z,5.90
2019-02-25T11:35:50.857Z,6.00
2019-02-25T11:36:52.590Z,5.80
2019-02-25T11:37:52.009Z,5.10
2019-02-25T11:38:50.821Z,5.40
2019-02-25T11:39:52.542Z,5.70
2019-02-25T11:40:50.799Z,5.50
2019-02-25T11:41:50.787Z,5.30
2019-02-25T11:42:50.783Z,5.50
2019-02-25T11:43:52.802Z,5.40
2019-02-25T11:44:52.026Z,5.10
2019-02-25T11:45:50.743Z,5.40
2019-02-25T11:46:50.730Z,4.70
2019-02-25T11:47:50.724Z,5.10
2019-02-25T11:48:50.708Z,5.10
2019-02-25T11:49:51.003Z,5.10
2019-02-25T11:50:50.694Z,5.40
2019-02-25T11:51:50.716Z,5.30
2019-02-25T11:52:50.676Z,5.50
2019-02-25T11:53:50.657Z,5.10
2019-02-25T11:54:50.668Z,4.60
2019-02-25T11:55:50.649Z,4.90
2019-02-25T11:56:50.626Z,4.70
2019-02-25T11:57:50.637Z,4.60
2019-02-25T11:58:50.606Z,5.50
2019-02-25T11:59:50.594Z,5.60
2019-02-25T12:00:50.591Z,5.50
2019-02-25T12:01:50.592Z,5.40
2019-02-25T12:02:50.552Z,5.50
2019-02-25T12:03:50.538Z,5.50
2019-02-25T12:04:50.530Z,5.30
2019-02-25T12:05:52.521Z,5.20
2019-02-25T12:06:50.523Z,5.30
2019-02-25T12:07:50.505Z,5.60
2019-02-25T12:08:50.497Z,5.80
2019-02-25T12:09:50.510Z,5.70
2019-02-25T12:10:50.460Z,5.50
2019-02-25T12:11:50.513Z,5.10
2019-02-25T12:12:50.439Z,5.20
2019-02-25T12:13:50.437Z,5.10
2019-02-25T12:14:50.419Z,4.70
2019-02-25T12:15:50.439Z,4.60
2019-02-25T12:16:50.397Z,5.10
2019-02-25T12:17:50.395Z,5.00
2019-02-25T12:18:50.429Z,5.20
2019-02-25T12:19:50.360Z,5.30
2019-02-25T12:20:50.369Z,5.10
2019-02-25T12:21:50.387Z,5.20
2019-02-25T12:22:50.360Z,5.50
2019-02-25T12:23:50.343Z,5.70
2019-02-25T12:24:50.319Z,5.30
2019-02-25T12:25:50.296Z,5.10
2019-02-25T12:26:50.298Z,5.10
2019-02-25T12:27:50.294Z,5.20
2019-02-25T12:28:50.273Z,5.30
2019-02-25T12:29:50.292Z,5.60
2019-02-25T12:30:50.253Z,5.40
2019-02-25T12:31:50.272Z,6.00
2019-02-25T12:32:50.235Z,5.80
2019-02-25T12:33:50.229Z,6.10
2019-02-25T12:34:50.193Z,5.40
2019-02-25T12:35:50.213Z,5.50
2019-02-25T12:36:50.215Z,5.40
2019-02-25T12:37:50.182Z,5.10
2019-02-25T12:38:50.173Z,5.40
2019-02-25T12:39:50.148Z,5.20
2019-02-25T12:40:50.134Z,4.80
2019-02-25T12:41:50.133Z,5.30
2019-02-25T12:42:50.147Z,4.90
2019-02-25T12:43:50.112Z,4.70
2019-02-25T12:44:50.090Z,4.50
2019-02-25T12:45:50.076Z,4.80
2019-02-25T12:46:50.073Z,4.80
2019-02-25T12:47:50.078Z,4.80
2019-02-25T12:48:50.079Z,5.10
2019-02-25T12:49:50.031Z,4.90
2019-02-25T12:50:50.023Z,5.20
2019-02-25T12:51:50.010Z,5.00
2019-02-25T12:52:50.017Z,4.90
2019-02-25T12:53:49.984Z,4.70
2019-02-25T12:54:49.977Z,5.00
2019-02-25T12:55:49.967Z,4.80
2019-02-25T12:56:49.962Z,5.00
2019-02-25T12:57:49.956Z,5.70
2019-02-25T12:58:49.946Z,5.20
2019-02-25T12:59:49.934Z,4.90
2019-02-25T13:00:49.908Z,5.30
2019-02-25T13:01:49.905Z,5.50
2019-02-25T13:02:49.973Z,5.30
2019-02-25T13:03:49.879Z,5.20
2019-02-25T13:04:49.869Z,5.30
2019-02-25T13:05:49.874Z,5.60
2019-02-25T13:06:49.854Z,5.20
2019-02-25T13:07:49.841Z,5.40
2019-02-25T13:08:49.857Z,5.30
2019-02-25T13:09:49.815Z,5.10
2019-02-25T13:10:49.805Z,4.90
2019-02-25T13:11:49.791Z,5.30
2019-02-25T13:12:52.876Z,4.50
2019-02-25T13:13:49.787Z,5.30
2019-02-25T13:14:49.766Z,5.10
2019-02-25T13:15:49.767Z,4.80
2019-02-25T13:16:49.743Z,4.90